Time;durP1;ratioP1;P1;durP2;ratioP2;P2;SDS_P1;SDS_P2;PMS_P1;PMS_P2;Temp;Humidity;BMP_temperature;BMP_pressure;BME280_temperature;BME280_humidity;BME280_pressure;Samples;Min_cycle;Max_cycle;Signal;HPM_P1;HPM_P2
2023/11/15 00:00:06;;;;;;;52.53;39.42;;;11.30;99.90;;;;;;5120165;27;20038;-84
2023/11/15 00:02:36;;;;;;;57.53;39.50;;;11.30;99.90;;;;;;5102953;27;20020;-81
2023/11/15 00:05:04;;;;;;;52.33;38.47;;;11.30;99.90;;;;;;5121324;27;20108;-83
2023/11/15 00:07:30;;;;;;;54.00;37.92;;;11.30;99.90;;;;;;5123479;27;20470;-84
2023/11/15 00:09:56;;;;;;;55.70;41.30;;;11.30;99.90;;;;;;5121231;27;20395;-81
2023/11/15 00:12:22;;;;;;;56.80;39.80;;;11.20;99.90;;;;;;5124511;27;20038;-81
2023/11/15 00:14:48;;;;;;;51.15;40.13;;;11.20;99.90;;;;;;5118285;27;20015;-81
2023/11/15 00:17:14;;;;;;;56.55;41.97;;;11.20;99.90;;;;;;5120968;27;20114;-82
2023/11/15 00:19:41;;;;;;;58.70;38.08;;;11.20;99.90;;;;;;5122878;27;20066;-81
2023/11/15 00:22:07;;;;;;;54.38;39.28;;;11.20;99.90;;;;;;5122626;27;20020;-84
2023/11/15 00:24:33;;;;;;;48.47;35.75;;;11.20;99.90;;;;;;5124738;27;20072;-82
2023/11/15 00:26:59;;;;;;;47.03;34.63;;;11.10;99.90;;;;;;5103294;27;20528;-81
2023/11/15 00:29:24;;;;;;;46.92;34.42;;;11.10;99.90;;;;;;5106727;27;20386;-81
2023/11/15 00:31:50;;;;;;;42.70;32.17;;;11.10;99.90;;;;;;5125442;27;20070;-81
2023/11/15 00:34:16;;;;;;;42.67;31.05;;;11.00;99.90;;;;;;5107055;27;20030;-81
2023/11/15 00:36:49;;;;;;;39.50;30.02;;;11.00;99.90;;;;;;5101878;27;20435;-85
2023/11/15 00:39:14;;;;;;;41.17;29.27;;;11.00;99.90;;;;;;5097627;28;20024;-84
2023/11/15 00:41:40;;;;;;;39.50;29.85;;;10.90;99.90;;;;;;5098968;28;20028;-84
2023/11/15 00:44:07;;;;;;;39.92;30.35;;;10.90;99.90;;;;;;5100356;28;20069;-84
2023/11/15 00:46:34;;;;;;;41.67;29.58;;;10.90;99.90;;;;;;5100004;28;20023;-84
2023/11/15 00:49:00;;;;;;;37.42;28.58;;;10.90;99.90;;;;;;5098421;28;20024;-84
2023/11/15 00:51:26;;;;;;;34.00;26.60;;;10.70;99.90;;;;;;5097636;28;20041;-84
2023/11/15 00:53:51;;;;;;;36.63;24.98;;;10.70;99.90;;;;;;5099771;28;20023;-85
2023/11/15 00:56:17;;;;;;;34.85;24.77;;;10.70;99.90;;;;;;5097380;28;20055;-84
2023/11/15 00:58:43;;;;;;;40.10;29.15;;;10.70;99.90;;;;;;5097150;28;20024;-84
2023/11/15 01:01:10;;;;;;;36.05;27.52;;;10.60;99.90;;;;;;5099913;28;20473;-83
2023/11/15 01:03:40;;;;;;;34.05;25.88;;;10.60;99.90;;;;;;5097180;28;20105;-84
2023/11/15 01:06:06;;;;;;;33.55;25.30;;;10.60;99.90;;;;;;5100362;28;20520;-84
2023/11/15 01:08:32;;;;;;;30.00;23.75;;;10.50;99.90;;;;;;5097290;28;20020;-84
2023/11/15 01:10:58;;;;;;;30.70;23.38;;;10.50;99.90;;;;;;5099265;28;20374;-84
2023/11/15 01:13:26;;;;;;;34.03;26.63;;;10.40;99.90;;;;;;5099059;28;20020;-85
2023/11/15 01:15:52;;;;;;;35.13;25.95;;;10.30;99.90;;;;;;5097059;28;20031;-85
2023/11/15 01:18:19;;;;;;;35.28;26.25;;;10.20;99.90;;;;;;5091808;28;20029;-84
2023/11/15 01:20:45;;;;;;;36.63;27.20;;;10.20;99.90;;;;;;5099220;28;20047;-85
2023/11/15 01:23:11;;;;;;;39.65;26.95;;;10.30;99.90;;;;;;5098754;28;20393;-85
2023/11/15 01:25:38;;;;;;;34.00;24.88;;;10.30;99.90;;;;;;5097370;28;20020;-83
2023/11/15 01:28:04;;;;;;;30.17;23.25;;;10.30;99.90;;;;;;5096590;28;20025;-84
2023/11/15 01:30:30;;;;;;;34.45;24.75;;;10.30;99.90;;;;;;5098979;28;20279;-84
2023/11/15 01:32:56;;;;;;;29.08;23.60;;;10.20;99.90;;;;;;5098638;28;20024;-85
2023/11/15 01:35:23;;;;;;;37.67;24.92;;;10.10;99.90;;;;;;5097515;28;20138;-84
2023/11/15 01:37:51;;;;;;;34.25;24.10;;;10.20;99.90;;;;;;5099292;28;20389;-85
2023/11/15 01:40:19;;;;;;;30.00;23.80;;;10.10;99.90;;;;;;5099731;28;20438;-84
2023/11/15 01:42:47;;;;;;;34.20;23.73;;;10.10;99.90;;;;;;5097036;28;20023;-85
2023/11/15 01:45:12;;;;;;;34.30;25.15;;;10.10;99.90;;;;;;5097170;28;20474;-85
2023/11/15 01:47:40;;;;;;;31.65;24.48;;;10.10;99.90;;;;;;5084410;28;20032;-84
2023/11/15 01:50:13;;;;;;;33.33;25.52;;;10.10;99.90;;;;;;5101258;28;20046;-85
2023/11/15 01:52:41;;;;;;;32.75;25.45;;;10.10;99.90;;;;;;5080886;28;20040;-83
2023/11/15 01:55:12;;;;;;;39.65;25.05;;;10.10;99.90;;;;;;5083599;28;20031;-84
2023/11/15 01:57:38;;;;;;;34.22;22.83;;;10.00;99.90;;;;;;5100672;28;20024;-85
2023/11/15 02:00:06;;;;;;;28.45;22.98;;;10.00;99.90;;;;;;5085155;28;20024;-84
2023/11/15 02:02:32;;;;;;;35.45;25.52;;;10.00;99.90;;;;;;5084659;28;20020;-84
2023/11/15 02:04:58;;;;;;;32.58;23.90;;;10.00;99.90;;;;;;5082198;28;20051;-84
2023/11/15 02:07:23;;;;;;;32.47;26.05;;;10.00;99.90;;;;;;5081945;28;20047;-84
2023/11/15 02:09:49;;;;;;;30.98;23.70;;;9.90;99.90;;;;;;5076835;28;20426;-84
2023/11/15 02:12:16;;;;;;;30.92;25.38;;;9.90;99.90;;;;;;5083618;28;20024;-85
2023/11/15 02:14:41;;;;;;;27.25;22.65;;;9.80;99.90;;;;;;5082386;28;20056;-84
2023/11/15 02:17:07;;;;;;;30.08;24.00;;;9.80;99.90;;;;;;5084902;28;20060;-84
2023/11/15 02:19:33;;;;;;;29.25;22.40;;;9.70;99.90;;;;;;5082990;28;20023;-84
2023/11/15 02:21:59;;;;;;;29.88;23.17;;;9.50;99.90;;;;;;5084096;28;20030;-84
2023/11/15 02:24:24;;;;;;;34.35;25.98;;;9.50;99.90;;;;;;5084983;28;20097;-85
2023/11/15 02:26:50;;;;;;;35.63;26.13;;;9.40;99.90;;;;;;5082160;28;20017;-84
2023/11/15 02:29:16;;;;;;;34.70;27.00;;;9.50;99.90;;;;;;5085126;28;20112;-85
2023/11/15 02:31:41;;;;;;;44.22;28.75;;;9.50;99.90;;;;;;5095050;28;20028;-85
2023/11/15 02:34:07;;;;;;;34.28;27.27;;;9.50;99.90;;;;;;5082324;28;20043;-84
2023/11/15 02:36:33;;;;;;;36.15;27.52;;;9.50;99.90;;;;;;5084419;28;20383;-84
2023/11/15 02:38:59;;;;;;;33.05;26.27;;;9.50;99.90;;;;;;5081928;28;20024;-85
2023/11/15 02:41:24;;;;;;;35.88;26.98;;;9.50;99.90;;;;;;5084710;28;20013;-85
2023/11/15 02:43:50;;;;;;;33.28;27.05;;;9.50;99.90;;;;;;5083505;28;20025;-85
2023/11/15 02:46:22;;;;;;;31.30;25.65;;;9.60;99.90;;;;;;5085549;28;20028;-84
2023/11/15 02:48:52;;;;;;;34.78;26.67;;;9.60;99.90;;;;;;5081744;28;20119;-84
2023/11/15 02:51:18;;;;;;;32.65;24.85;;;9.60;99.90;;;;;;5085627;28;20020;-85
2023/11/15 02:53:44;;;;;;;32.95;24.17;;;9.60;99.90;;;;;;5085692;28;20117;-85
2023/11/15 02:56:10;;;;;;;35.55;25.48;;;9.50;99.90;;;;;;5081968;28;20386;-84
2023/11/15 02:58:35;;;;;;;32.35;23.80;;;9.50;99.90;;;;;;5083613;28;20490;-84
2023/11/15 03:01:07;;;;;;;32.70;25.05;;;9.50;99.90;;;;;;5080959;28;20692;-85
2023/11/15 03:03:36;;;;;;;37.10;25.63;;;9.40;99.90;;;;;;5081574;28;20388;-84
2023/11/15 03:06:03;;;;;;;31.90;24.38;;;9.40;99.90;;;;;;5080152;28;20025;-85
2023/11/15 03:08:32;;;;;;;32.63;23.92;;;9.30;99.90;;;;;;5083824;28;20073;-85
2023/11/15 03:10:59;;;;;;;29.55;22.80;;;9.30;99.90;;;;;;5080790;28;20040;-85
2023/11/15 03:13:24;;;;;;;30.73;23.17;;;9.20;99.90;;;;;;5083961;28;20034;-84
2023/11/15 03:15:50;;;;;;;32.80;24.48;;;9.20;99.90;;;;;;5081305;28;20104;-84
2023/11/15 03:18:17;;;;;;;30.67;24.80;;;9.20;99.90;;;;;;5082745;28;20054;-85
2023/11/15 03:20:43;;;;;;;35.90;25.58;;;9.20;99.90;;;;;;5081725;28;20554;-85
2023/11/15 03:23:09;;;;;;;33.75;24.42;;;9.20;99.90;;;;;;5082257;28;20107;-85
2023/11/15 03:25:38;;;;;;;29.95;24.20;;;9.30;99.90;;;;;;5084453;28;20060;-86
2023/11/15 03:28:05;;;;;;;31.42;24.20;;;9.20;99.90;;;;;;5092765;28;20031;-85
2023/11/15 03:30:31;;;;;;;33.28;25.52;;;9.20;99.90;;;;;;5079116;28;20051;-85
2023/11/15 03:32:57;;;;;;;29.60;24.33;;;9.30;99.90;;;;;;5084197;28;20475;-85
2023/11/15 03:35:23;;;;;;;34.22;25.67;;;9.30;99.90;;;;;;5082709;28;20048;-85
2023/11/15 03:37:50;;;;;;;28.80;22.30;;;9.30;99.90;;;;;;5075623;28;20024;-84
2023/11/15 03:40:19;;;;;;;37.00;25.33;;;9.30;99.90;;;;;;5081125;28;20028;-85
2023/11/15 03:42:45;;;;;;;33.10;26.90;;;9.30;99.90;;;;;;5081824;28;20016;-85
2023/11/15 03:45:11;;;;;;;34.58;25.90;;;9.30;99.90;;;;;;5083972;28;20033;-85
2023/11/15 03:47:37;;;;;;;31.13;23.50;;;9.20;99.90;;;;;;5077149;28;20032;-84
2023/11/15 03:50:04;;;;;;;30.73;23.60;;;9.10;99.90;;;;;;5081222;28;20429;-85
2023/11/15 03:52:31;;;;;;;30.33;23.77;;;9.00;99.90;;;;;;5084018;28;20119;-85
2023/11/15 03:54:56;;;;;;;28.75;22.88;;;9.00;99.90;;;;;;5083722;28;20056;-85
2023/11/15 03:57:22;;;;;;;30.20;24.33;;;9.00;99.90;;;;;;5082888;28;20498;-85
2023/11/15 03:59:48;;;;;;;30.08;23.67;;;9.00;99.90;;;;;;5079296;28;20052;-85
2023/11/15 04:02:15;;;;;;;26.50;21.23;;;9.10;99.90;;;;;;5082613;28;20050;-85
2023/11/15 04:04:40;;;;;;;27.50;23.90;;;9.00;99.90;;;;;;5082887;28;20028;-85
2023/11/15 04:07:07;;;;;;;31.40;23.38;;;8.90;99.90;;;;;;5075981;28;20105;-84
2023/11/15 04:09:34;;;;;;;28.73;23.00;;;9.00;99.90;;;;;;5075193;28;20111;-85
2023/11/15 04:12:00;;;;;;;30.63;23.35;;;9.00;99.90;;;;;;5081296;28;20031;-85
2023/11/15 04:14:25;;;;;;;27.50;22.58;;;8.90;99.90;;;;;;5082213;28;20028;-85
2023/11/15 04:16:51;;;;;;;30.98;22.95;;;8.80;99.90;;;;;;5077006;28;20382;-85
2023/11/15 04:19:21;;;;;;;28.83;23.52;;;8.80;99.90;;;;;;5078608;28;20024;-85
2023/11/15 04:21:48;;;;;;;32.97;24.15;;;8.90;99.90;;;;;;5082567;28;20017;-85
2023/11/15 04:24:14;;;;;;;28.17;23.42;;;8.80;99.90;;;;;;5081025;28;20109;-85
2023/11/15 04:26:40;;;;;;;30.58;25.50;;;8.80;99.90;;;;;;5079427;28;20082;-85
2023/11/15 04:29:06;;;;;;;30.48;25.35;;;8.80;99.90;;;;;;5078745;28;20032;-85
2023/11/15 04:31:35;;;;;;;35.50;26.08;;;8.80;99.90;;;;;;5080341;28;20382;-85
2023/11/15 04:34:02;;;;;;;36.17;25.55;;;8.80;99.90;;;;;;5080462;28;20035;-84
2023/11/15 04:36:31;;;;;;;32.58;26.30;;;8.80;99.90;;;;;;5082503;28;20044;-85
2023/11/15 04:38:57;;;;;;;31.80;26.45;;;8.80;99.90;;;;;;5076389;28;20051;-85
2023/11/15 04:41:23;;;;;;;36.28;26.65;;;8.70;99.90;;;;;;5082261;28;20560;-85
2023/11/15 04:43:49;;;;;;;30.10;24.48;;;8.70;99.90;;;;;;5081848;28;20036;-85
2023/11/15 04:46:15;;;;;;;29.85;24.30;;;8.70;99.90;;;;;;5096239;28;20054;-85
2023/11/15 04:48:41;;;;;;;32.63;24.60;;;8.70;99.90;;;;;;5083064;28;20035;-85
2023/11/15 04:51:07;;;;;;;31.33;24.63;;;8.80;99.90;;;;;;5080499;28;20028;-85
2023/11/15 04:53:33;;;;;;;32.70;24.85;;;8.80;99.90;;;;;;5081763;28;20103;-85
2023/11/15 04:56:00;;;;;;;33.70;24.95;;;8.60;99.90;;;;;;5082205;28;20028;-85
2023/11/15 04:58:26;;;;;;;34.42;26.35;;;8.60;99.90;;;;;;5080005;28;20031;-84
2023/11/15 05:00:51;;;;;;;33.88;26.48;;;8.60;99.90;;;;;;5079881;28;20032;-85
2023/11/15 05:03:19;;;;;;;33.47;26.40;;;8.60;99.90;;;;;;5082369;28;20510;-85
2023/11/15 05:05:45;;;;;;;32.15;25.65;;;8.70;99.90;;;;;;5080478;28;20032;-85
2023/11/15 05:08:11;;;;;;;36.05;25.02;;;8.60;99.90;;;;;;5080334;28;20029;-86
2023/11/15 05:10:37;;;;;;;33.97;26.75;;;8.50;99.90;;;;;;5083049;28;20073;-85
2023/11/15 05:13:04;;;;;;;37.15;28.33;;;8.60;99.90;;;;;;5080344;28;20087;-85
2023/11/15 05:15:31;;;;;;;32.90;27.02;;;8.50;99.90;;;;;;5081577;28;20539;-85
2023/11/15 05:17:57;;;;;;;32.88;27.60;;;8.60;99.90;;;;;;5080964;28;20035;-85
2023/11/15 05:20:24;;;;;;;33.80;25.75;;;8.60;99.90;;;;;;5080104;28;20108;-86
2023/11/15 05:22:50;;;;;;;37.28;28.02;;;8.60;99.90;;;;;;5083855;28;20054;-85
2023/11/15 05:25:16;;;;;;;34.08;27.38;;;8.50;99.90;;;;;;5085817;28;20174;-85
2023/11/15 05:27:42;;;;;;;39.72;30.10;;;8.60;99.90;;;;;;5084224;28;20032;-86
2023/11/15 05:30:08;;;;;;;37.85;28.52;;;8.60;99.90;;;;;;5082308;28;20059;-86
2023/11/15 05:32:35;;;;;;;39.22;29.08;;;8.60;99.90;;;;;;5083358;28;20055;-85
2023/11/15 05:35:01;;;;;;;53.72;30.55;;;8.60;99.90;;;;;;5101092;28;20513;-85
2023/11/15 05:37:27;;;;;;;38.15;28.58;;;8.60;99.90;;;;;;5084742;28;20021;-85
2023/11/15 05:39:53;;;;;;;34.13;26.35;;;8.60;99.90;;;;;;5083873;28;20028;-86
2023/11/15 05:42:18;;;;;;;32.70;27.52;;;8.70;99.90;;;;;;5086421;28;20104;-85
2023/11/15 05:44:44;;;;;;;36.95;27.58;;;8.70;99.90;;;;;;5083919;28;20360;-85
2023/11/15 05:47:10;;;;;;;30.38;25.08;;;8.70;99.90;;;;;;5085491;28;20031;-85
2023/11/15 05:49:36;;;;;;;37.72;27.75;;;8.70;99.90;;;;;;5084754;28;20020;-86
2023/11/15 05:52:02;;;;;;;36.58;28.38;;;8.70;99.90;;;;;;5084902;28;20538;-85
2023/11/15 05:54:28;;;;;;;33.50;25.92;;;8.70;99.90;;;;;;5103140;28;20157;-85
2023/11/15 05:56:55;;;;;;;57.42;36.00;;;8.70;99.90;;;;;;5086085;28;20058;-85
2023/11/15 05:59:21;;;;;;;40.08;28.90;;;8.70;99.90;;;;;;5084198;28;20028;-85
2023/11/15 06:01:47;;;;;;;33.75;27.05;;;8.70;99.90;;;;;;5085093;28;20024;-86
2023/11/15 06:04:12;;;;;;;35.97;28.05;;;8.60;99.90;;;;;;5084269;28;20363;-85
2023/11/15 06:06:38;;;;;;;30.45;26.15;;;8.50;99.90;;;;;;5084024;28;20042;-85
2023/11/15 06:09:13;;;;;;;35.00;28.25;;;8.30;99.90;;;;;;5089081;28;20032;-85
2023/11/15 06:11:39;;;;;;;40.15;29.95;;;8.30;99.90;;;;;;5076452;28;20145;-85
2023/11/15 06:14:05;;;;;;;37.65;29.65;;;8.30;99.90;;;;;;5075793;28;20123;-85
2023/11/15 06:16:31;;;;;;;34.78;26.17;;;8.30;99.90;;;;;;5076156;28;20116;-85
2023/11/15 06:18:57;;;;;;;35.45;25.42;;;8.30;99.90;;;;;;5079630;28;20077;-84
2023/11/15 06:21:23;;;;;;;33.67;26.58;;;8.30;99.90;;;;;;5079422;28;20040;-84
2023/11/15 06:23:49;;;;;;;34.63;24.90;;;8.30;99.90;;;;;;5075266;28;20044;-85
2023/11/15 06:26:15;;;;;;;38.20;27.27;;;8.30;99.90;;;;;;5079494;28;20043;-85
2023/11/15 06:28:40;;;;;;;28.98;24.67;;;8.20;99.90;;;;;;5088488;28;20481;-85
2023/11/15 06:31:06;;;;;;;33.33;25.65;;;8.10;99.90;;;;;;5075130;28;20147;-86
2023/11/15 06:33:33;;;;;;;35.90;26.17;;;8.10;99.90;;;;;;5075031;28;20390;-86
2023/11/15 06:35:58;;;;;;;30.27;24.67;;;8.10;99.90;;;;;;5094727;28;20075;-85
2023/11/15 06:38:24;;;;;;;32.60;23.77;;;8.10;99.90;;;;;;5094250;28;20058;-86
2023/11/15 06:40:50;;;;;;;37.40;25.45;;;8.10;99.90;;;;;;5080403;28;20012;-86
2023/11/15 06:43:16;;;;;;;32.45;24.13;;;8.00;99.90;;;;;;5090046;28;20047;-86
2023/11/15 06:45:42;;;;;;;33.40;25.73;;;8.00;99.90;;;;;;5089723;28;20024;-86
2023/11/15 06:48:08;;;;;;;35.83;29.05;;;8.00;99.90;;;;;;5080979;28;20052;-86
2023/11/15 06:50:34;;;;;;;50.03;34.90;;;8.00;99.90;;;;;;5085001;28;20028;-86
2023/11/15 06:53:01;;;;;;;56.42;40.55;;;8.00;99.90;;;;;;5083342;28;20363;-86
2023/11/15 06:55:27;;;;;;;54.00;41.72;;;8.10;99.90;;;;;;5082834;28;20027;-86
2023/11/15 06:57:53;;;;;;;59.65;41.97;;;8.20;99.90;;;;;;5085098;28;20020;-85
2023/11/15 07:00:19;;;;;;;49.70;36.72;;;8.30;99.90;;;;;;5075247;28;20047;-86
2023/11/15 07:02:45;;;;;;;49.65;33.85;;;8.40;99.90;;;;;;5081378;28;20021;-84
2023/11/15 07:05:13;;;;;;;45.92;33.13;;;8.50;99.90;;;;;;5085863;28;20124;-85
2023/11/15 07:07:40;;;;;;;48.25;34.90;;;8.50;99.90;;;;;;5082055;28;20126;-86
2023/11/15 07:10:06;;;;;;;45.53;32.92;;;8.40;99.90;;;;;;5083663;28;20028;-86
2023/11/15 07:12:35;;;;;;;47.38;32.78;;;8.40;99.90;;;;;;5082138;28;20158;-85
2023/11/15 07:15:07;;;;;;;44.45;34.00;;;8.40;99.90;;;;;;5082892;28;20073;-85
2023/11/15 07:17:33;;;;;;;47.50;32.70;;;8.50;99.90;;;;;;5080025;28;20024;-86
2023/11/15 07:19:59;;;;;;;43.97;33.63;;;8.50;99.90;;;;;;5082920;28;20028;-85
2023/11/15 07:22:25;;;;;;;44.97;32.25;;;8.50;99.90;;;;;;5080908;28;20663;-86
2023/11/15 07:24:51;;;;;;;42.47;32.47;;;8.60;99.90;;;;;;5082544;28;20024;-86
2023/11/15 07:27:17;;;;;;;47.08;34.17;;;8.60;99.90;;;;;;5080017;28;20035;-85
2023/11/15 07:29:46;;;;;;;43.25;32.72;;;8.60;99.90;;;;;;5075536;28;20020;-85
2023/11/15 07:32:12;;;;;;;54.90;33.38;;;8.60;99.90;;;;;;5081413;28;20434;-85
2023/11/15 07:34:39;;;;;;;55.10;36.67;;;8.70;99.90;;;;;;5082036;28;20052;-85
2023/11/15 07:37:04;;;;;;;53.83;39.88;;;8.70;99.90;;;;;;5084466;28;20119;-85
2023/11/15 07:39:30;;;;;;;55.67;38.92;;;8.70;99.90;;;;;;5079614;28;20111;-85
2023/11/15 07:41:57;;;;;;;56.67;39.97;;;8.70;99.90;;;;;;5082134;28;20119;-85
2023/11/15 07:44:25;;;;;;;55.15;40.92;;;8.70;99.90;;;;;;5081292;28;20056;-86
2023/11/15 07:46:51;;;;;;;56.35;39.88;;;8.80;99.90;;;;;;5081052;28;20115;-85
2023/11/15 07:49:18;;;;;;;56.15;41.95;;;8.80;99.90;;;;;;5080299;28;20107;-86
2023/11/15 07:51:47;;;;;;;55.05;40.92;;;8.80;99.90;;;;;;5081779;28;20044;-86
2023/11/15 07:54:14;;;;;;;56.90;40.38;;;8.90;99.90;;;;;;5097611;28;20074;-85
2023/11/15 07:56:43;;;;;;;62.13;43.15;;;8.90;99.90;;;;;;5083627;28;20024;-86
2023/11/15 07:59:10;;;;;;;65.15;41.90;;;8.90;99.90;;;;;;5093503;28;20103;-85
2023/11/15 08:01:37;;;;;;;56.17;41.72;;;9.00;99.90;;;;;;5078470;28;20023;-85
2023/11/15 08:04:06;;;;;;;52.47;39.90;;;9.00;99.90;;;;;;5100304;28;20481;-85
2023/11/15 08:06:33;;;;;;;58.28;39.60;;;9.10;99.90;;;;;;5080664;28;20020;-84
2023/11/15 08:09:00;;;;;;;57.47;39.97;;;9.20;99.90;;;;;;5081265;28;20024;-86
2023/11/15 08:11:26;;;;;;;61.47;42.53;;;9.20;99.90;;;;;;5073102;28;20024;-85
2023/11/15 08:13:55;;;;;;;62.88;45.70;;;9.30;99.90;;;;;;5081447;28;20024;-85
2023/11/15 08:16:22;;;;;;;59.40;44.42;;;9.30;99.90;;;;;;5079059;28;20524;-84
2023/11/15 08:18:49;;;;;;;69.90;50.08;;;9.40;99.90;;;;;;5083627;28;20024;-85
2023/11/15 08:21:15;;;;;;;67.22;50.28;;;9.50;99.90;;;;;;5082281;28;20021;-85
2023/11/15 08:23:42;;;;;;;73.65;51.72;;;9.60;99.90;;;;;;5078688;28;20024;-85
2023/11/15 08:26:07;;;;;;;76.15;50.15;;;9.70;99.90;;;;;;5082326;28;20031;-85
2023/11/15 08:28:33;;;;;;;71.68;50.75;;;9.70;99.90;;;;;;5079427;28;20024;-85
2023/11/15 08:30:59;;;;;;;66.68;46.70;;;9.70;99.90;;;;;;5079174;28;20039;-85
2023/11/15 08:33:26;;;;;;;70.20;49.80;;;9.80;99.90;;;;;;5081453;28;20024;-85
2023/11/15 08:35:53;;;;;;;65.22;46.33;;;9.80;99.90;;;;;;5081938;28;20401;-85
2023/11/15 08:38:24;;;;;;;63.63;48.38;;;9.90;99.90;;;;;;5076729;28;20518;-85
2023/11/15 08:40:51;;;;;;;56.40;44.97;;;9.90;99.90;;;;;;5080491;28;20016;-84
2023/11/15 08:43:17;;;;;;;67.22;48.00;;;10.00;99.90;;;;;;5082737;28;20478;-84
2023/11/15 08:45:44;;;;;;;63.72;47.15;;;10.00;99.90;;;;;;5083659;28;20346;-84
2023/11/15 08:48:17;;;;;;;63.63;46.40;;;10.10;99.90;;;;;;5078130;28;20032;-84
2023/11/15 08:50:43;;;;;;;72.05;47.15;;;10.10;99.90;;;;;;5082374;28;20020;-84
2023/11/15 08:53:14;;;;;;;65.20;49.30;;;10.20;99.90;;;;;;5079914;28;20032;-84
2023/11/15 08:55:44;;;;;;;72.90;49.95;;;10.30;99.90;;;;;;5082134;28;20053;-84
2023/11/15 08:58:16;;;;;;;67.90;49.40;;;10.30;99.90;;;;;;5085282;28;20037;-84
2023/11/15 09:00:44;;;;;;;67.90;50.92;;;10.40;99.90;;;;;;5082227;28;20507;-84
2023/11/15 09:03:10;;;;;;;68.57;50.00;;;10.40;99.90;;;;;;5084981;28;20021;-84
2023/11/15 09:05:39;;;;;;;70.53;50.83;;;10.40;99.90;;;;;;5086682;28;20037;-84
2023/11/15 09:08:05;;;;;;;64.78;46.88;;;10.40;99.90;;;;;;5083933;28;20486;-84
2023/11/15 09:10:31;;;;;;;63.60;48.88;;;10.40;99.90;;;;;;5082541;28;20035;-84
2023/11/15 09:12:58;;;;;;;63.47;49.22;;;10.50;99.90;;;;;;5085929;28;20370;-84
2023/11/15 09:15:24;;;;;;;67.72;51.08;;;10.40;99.90;;;;;;5085794;28;20108;-84
2023/11/15 09:17:50;;;;;;;67.25;48.38;;;10.50;99.90;;;;;;5082082;28;20024;-84
2023/11/15 09:20:21;;;;;;;69.00;50.92;;;10.50;99.90;;;;;;5083698;28;20021;-84
2023/11/15 09:22:53;;;;;;;68.60;49.85;;;10.50;99.90;;;;;;5082331;28;20026;-83
2023/11/15 09:25:23;;;;;;;;;;;10.50;99.90;;;;;;5099860;28;20082;-84
2023/11/15 09:27:54;;;;;;;63.67;46.78;;;10.60;99.90;;;;;;5079338;28;19904;-84
2023/11/15 09:30:21;;;;;;;64.38;47.42;;;10.70;99.90;;;;;;5099146;28;20116;-84
2023/11/15 09:32:49;;;;;;;55.30;40.95;;;10.80;99.90;;;;;;5082411;28;20038;-85
2023/11/15 09:35:16;;;;;;;52.90;38.08;;;11.00;99.90;;;;;;5079625;28;20041;-84
2023/11/15 09:37:43;;;;;;;49.45;34.63;;;11.10;99.90;;;;;;5084040;28;20209;-84
2023/11/15 09:40:13;;;;;;;44.67;34.70;;;11.10;99.90;;;;;;5082407;28;20029;-84
2023/11/15 09:42:44;;;;;;;47.20;37.08;;;11.20;99.90;;;;;;5086312;28;20141;-83
2023/11/15 09:45:17;;;;;;;53.88;38.22;;;11.20;99.90;;;;;;5083269;28;20028;-84
2023/11/15 09:47:47;;;;;;;51.70;38.65;;;11.20;99.90;;;;;;5083107;28;20021;-84
2023/11/15 09:50:24;;;;;;;62.70;41.90;;;11.30;99.90;;;;;;5076823;28;20453;-84
2023/11/15 09:52:53;;;;;;;65.05;44.45;;;11.50;99.90;;;;;;5082116;28;20032;-85
2023/11/15 09:55:23;;;;;;;60.97;43.63;;;11.50;99.90;;;;;;5079900;28;20024;-84
2023/11/15 09:57:53;;;;;;;57.28;42.90;;;11.50;99.90;;;;;;5086809;28;20021;-84
2023/11/15 10:00:23;;;;;;;58.70;41.75;;;11.40;99.90;;;;;;5081596;28;20016;-84
2023/11/15 10:02:53;;;;;;;55.03;40.75;;;11.50;99.90;;;;;;5080067;28;20024;-84
2023/11/15 10:05:26;;;;;;;59.90;42.15;;;11.60;99.90;;;;;;5083975;28;20039;-84
2023/11/15 10:08:15;;;;;;;62.55;45.78;;;11.70;99.90;;;;;;5085363;28;20035;-84
2023/11/15 10:10:46;;;;;;;64.95;45.75;;;11.80;99.90;;;;;;5085595;28;20029;-84
2023/11/15 10:13:17;;;;;;;60.42;46.03;;;11.80;99.90;;;;;;5080606;28;20022;-84
2023/11/15 10:15:46;;;;;;;60.13;45.53;;;11.80;99.90;;;;;;5084294;28;20453;-84
2023/11/15 10:18:18;;;;;;;70.13;47.05;;;11.80;99.90;;;;;;5072642;28;20455;-84
2023/11/15 10:20:44;;;;;;;68.10;47.08;;;11.80;99.90;;;;;;5086460;28;20021;-84
2023/11/15 10:23:10;;;;;;;70.57;46.47;;;11.80;99.90;;;;;;5082705;28;20512;-84
2023/11/15 10:25:53;;;;;;;64.80;46.90;;;11.80;99.90;;;;;;5085452;28;20073;-84
2023/11/15 10:28:22;;;;;;;73.40;47.35;;;11.80;99.90;;;;;;5085407;28;20016;-84
2023/11/15 10:31:05;;;;;;;65.38;44.58;;;11.80;99.90;;;;;;5098349;28;20386;-84
2023/11/15 10:33:34;;;;;;;66.95;46.38;;;11.90;99.90;;;;;;5082266;28;21016;-84
2023/11/15 10:36:21;;;;;;;61.28;44.33;;;12.00;99.90;;;;;;5084175;28;20044;-84
2023/11/15 10:38:55;;;;;;;60.85;43.70;;;12.00;99.90;;;;;;5079908;28;20013;-84
2023/11/15 10:41:25;;;;;;;64.85;43.95;;;12.00;99.90;;;;;;5082632;28;20036;-84
2023/11/15 10:43:52;;;;;;;64.05;42.53;;;12.10;99.90;;;;;;5078761;28;20378;-84
2023/11/15 10:46:31;;;;;;;56.00;41.45;;;12.00;99.90;;;;;;5079763;28;20032;-84
2023/11/15 10:48:59;;;;;;;58.47;41.50;;;12.10;99.90;;;;;;5080958;28;20119;-84
2023/11/15 10:51:43;;;;;;;59.92;40.35;;;12.10;99.90;;;;;;5083788;28;20023;-84
2023/11/15 10:54:11;;;;;;;55.13;40.15;;;12.20;99.90;;;;;;5079125;28;20044;-84
2023/11/15 10:56:39;;;;;;;56.67;39.20;;;12.20;99.90;;;;;;5083052;28;20021;-84
2023/11/15 10:59:05;;;;;;;55.42;39.28;;;12.20;99.90;;;;;;5084396;28;20016;-84
2023/11/15 11:01:34;;;;;;;52.00;37.90;;;12.20;99.90;;;;;;5076524;28;20028;-83
2023/11/15 11:04:00;;;;;;;53.33;38.78;;;12.30;99.90;;;;;;5081263;28;20043;-84
2023/11/15 11:06:34;;;;;;;52.05;37.80;;;12.40;99.90;;;;;;5082834;28;20497;-83
2023/11/15 11:09:09;;;;;;;51.13;36.55;;;12.40;99.90;;;;;;5084449;28;20140;-83
2023/11/15 11:12:10;;;;;;;50.88;36.05;;;12.50;99.90;;;;;;5083489;28;20020;-84
2023/11/15 11:14:37;;;;;;;43.97;32.20;;;12.60;99.90;;;;;;5083194;28;20071;-83
2023/11/15 11:17:03;;;;;;;47.53;32.00;;;12.70;99.90;;;;;;5080417;28;20092;-84
2023/11/15 11:19:29;;;;;;;43.55;31.67;;;12.70;99.90;;;;;;5080702;28;20448;-83
2023/11/15 11:22:04;;;;;;;42.22;32.17;;;12.80;99.90;;;;;;5081786;28;20378;-84
2023/11/15 11:24:39;;;;;;;46.50;34.10;;;12.90;99.90;;;;;;5073499;28;20051;-84
2023/11/15 11:27:14;;;;;;;45.75;35.00;;;12.90;99.90;;;;;;5083902;28;20477;-83
2023/11/15 11:29:49;;;;;;;43.13;32.92;;;12.90;99.90;;;;;;5077577;28;20481;-84
2023/11/15 11:32:31;;;;;;;39.90;31.60;;;12.90;99.90;;;;;;5084211;28;20075;-84
2023/11/15 11:35:07;;;;;;;45.65;32.67;;;13.00;99.90;;;;;;5081608;28;20050;-83
2023/11/15 11:37:55;;;;;;;40.58;31.75;;;13.00;99.90;;;;;;5080850;28;20023;-84
2023/11/15 11:40:26;;;;;;;45.30;31.65;;;13.10;99.90;;;;;;5078313;28;20205;-84
2023/11/15 11:42:52;;;;;;;41.63;30.23;;;13.10;99.90;;;;;;5081948;28;20035;-83
2023/11/15 11:45:20;;;;;;;42.65;30.27;;;13.30;99.90;;;;;;5080889;28;20032;-83
2023/11/15 11:47:47;;;;;;;38.53;29.33;;;13.30;99.90;;;;;;5077217;28;20056;-84
2023/11/15 11:50:23;;;;;;;38.85;29.17;;;13.50;99.90;;;;;;5082831;28;20076;-84
2023/11/15 11:52:59;;;;;;;47.00;31.30;;;13.60;99.90;;;;;;5080202;28;20024;-84
2023/11/15 11:55:28;;;;;;;45.45;31.98;;;13.50;99.90;;;;;;5095921;28;20032;-84
2023/11/15 11:58:00;;;;;;;52.38;34.58;;;13.60;99.90;;;;;;5075653;28;20037;-83
2023/11/15 12:00:26;;;;;;;45.90;32.60;;;13.60;99.90;;;;;;5076807;28;20027;-84
2023/11/15 12:02:53;;;;;;;47.22;32.85;;;13.80;99.90;;;;;;5078527;28;20028;-83
2023/11/15 12:05:24;;;;;;;42.22;31.00;;;13.80;99.90;;;;;;5082869;28;20020;-83
2023/11/15 12:07:53;;;;;;;48.70;33.03;;;13.90;99.90;;;;;;5091605;28;20016;-83
2023/11/15 12:10:19;;;;;;;47.15;31.08;;;13.80;99.90;;;;;;5081656;28;20016;-83
2023/11/15 12:13:02;;;;;;;50.35;32.95;;;13.80;99.90;;;;;;5081155;28;20156;-84
2023/11/15 12:15:28;;;;;;;45.03;31.98;;;13.70;99.90;;;;;;5076032;28;20025;-83
2023/11/15 12:17:56;;;;;;;44.65;30.38;;;13.70;99.90;;;;;;5077772;28;20078;-83
2023/11/15 12:20:26;;;;;;;42.92;30.10;;;13.60;99.90;;;;;;5083096;28;20020;-83
2023/11/15 12:23:17;;;;;;;42.08;27.92;;;13.60;99.90;;;;;;5081470;28;20486;-83
2023/11/15 12:25:49;;;;;;;44.53;29.83;;;13.70;99.90;;;;;;5077900;28;20036;-83
2023/11/15 12:28:19;;;;;;;43.30;29.65;;;13.70;99.90;;;;;;5079878;28;20090;-83
2023/11/15 12:30:45;;;;;;;44.20;30.73;;;13.70;99.90;;;;;;5080081;28;20047;-84
2023/11/15 12:33:12;;;;;;;45.55;31.98;;;13.60;99.90;;;;;;5081684;28;20099;-83
2023/11/15 12:35:42;;;;;;;49.78;33.15;;;13.70;99.90;;;;;;5080951;28;20052;-83